Time,TemperatureF,DewpointF,PressureIn,WindDirection,WindDirectionDegrees,WindSpeedMPH,WindSpeedGustMPH,Humidity,HourlyPrecipIn,Conditions,Clouds,dailyrainin,SolarRadiationWatts/m^2,SoftwareType,DateUTC
2014-02-17 00:02:00,36.0,26.0,-100.00,ESE,118,3.0,7.0,68,0.00,,,0.08,47.000000,,2014-02-17 00:02:00,
2014-02-17 00:11:00,34.0,27.0,-100.00,ESE,111,4.0,9.0,76,0.00,,,0.08,0.000000,,2014-02-17 00:11:00,
2014-02-17 00:42:00,34.0,27.0,-100.00,ESE,111,4.0,9.0,76,0.00,,,0.08,0.000000,,2014-02-17 00:42:00,
2014-02-17 00:52:00,34.0,27.0,-100.00,ESE,111,4.0,9.0,76,0.00,,,0.08,0.000000,,2014-02-17 00:52:00,
2014-02-17 01:02:00,34.0,27.0,-100.00,ESE,111,4.0,9.0,76,0.00,,,0.08,0.000000,,2014-02-17 01:02:00,
2014-02-17 01:11:00,33.0,28.0,-100.00,ESE,112,3.0,10.0,80,0.00,,,0.08,0.000000,,2014-02-17 01:11:00,
2014-02-17 01:42:00,33.0,28.0,-100.00,ESE,112,3.0,10.0,80,0.00,,,0.08,0.000000,,2014-02-17 01:42:00,
2014-02-17 01:53:00,33.0,28.0,-100.00,ESE,112,3.0,10.0,80,0.00,,,0.08,0.000000,,2014-02-17 01:53:00,
2014-02-17 02:01:00,33.0,28.0,-100.00,ESE,112,3.0,10.0,80,0.00,,,0.08,0.000000,,2014-02-17 02:01:00,
2014-02-17 02:11:00,31.0,27.0,-100.00,ESE,118,3.0,7.0,84,0.00,,,0.08,0.000000,,2014-02-17 02:11:00,
2014-02-17 02:42:00,31.0,27.0,-100.00,ESE,118,3.0,7.0,84,0.00,,,0.08,0.000000,,2014-02-17 02:42:00,
2014-02-17 02:53:00,31.0,27.0,-100.00,ESE,118,3.0,7.0,84,0.00,,,0.08,0.000000,,2014-02-17 02:53:00,
2014-02-17 03:02:00,31.0,27.0,-100.00,ESE,118,3.0,7.0,84,0.00,,,0.08,0.000000,,2014-02-17 03:02:00,
2014-02-17 03:11:00,29.0,25.0,-100.00,ESE,102,2.0,11.0,85,0.00,,,0.08,0.000000,,2014-02-17 03:11:00,
2014-02-17 03:44:00,29.0,25.0,-100.00,ESE,102,2.0,11.0,85,0.00,,,0.08,0.000000,,2014-02-17 03:44:00,
2014-02-17 03:54:00,29.0,25.0,-100.00,ESE,102,2.0,11.0,85,0.00,,,0.08,0.000000,,2014-02-17 03:54:00,
2014-02-17 04:04:00,29.0,25.0,-100.00,ESE,102,2.0,11.0,85,0.00,,,0.08,0.000000,,2014-02-17 04:04:00,
2014-02-17 04:11:00,29.0,25.0,-100.00,SE,130,3.0,9.0,85,0.00,,,0.08,0.000000,,2014-02-17 04:11:00,
2014-02-17 04:43:00,29.0,25.0,-100.00,SE,130,3.0,9.0,85,0.00,,,0.08,0.000000,,2014-02-17 04:43:00,
2014-02-17 04:53:00,29.0,25.0,-100.00,SE,130,3.0,9.0,85,0.00,,,0.08,0.000000,,2014-02-17 04:53:00,
2014-02-17 05:02:00,29.0,25.0,-100.00,SE,130,3.0,9.0,85,0.00,,,0.08,0.000000,,2014-02-17 05:02:00,
2014-02-17 05:11:00,29.0,25.0,-100.00,ESE,122,2.0,7.0,85,0.00,,,0.08,0.000000,,2014-02-17 05:11:00,
2014-02-17 05:43:00,29.0,25.0,-100.00,ESE,122,2.0,7.0,85,0.00,,,0.08,0.000000,,2014-02-17 05:43:00,
2014-02-17 05:53:00,29.0,25.0,-100.00,ESE,122,2.0,7.0,85,0.00,,,0.08,0.000000,,2014-02-17 05:53:00,
2014-02-17 06:02:00,29.0,25.0,-100.00,ESE,122,2.0,7.0,85,0.00,,,0.08,0.000000,,2014-02-17 06:02:00,
2014-02-17 06:11:00,28.0,24.0,-100.00,SSE,153,3.0,6.0,85,0.00,,,0.08,0.000000,,2014-02-17 06:11:00,
2014-02-17 06:42:00,28.0,24.0,-100.00,SSE,153,3.0,6.0,85,0.00,,,0.08,0.000000,,2014-02-17 06:42:00,
2014-02-17 06:52:00,28.0,24.0,-100.00,SSE,153,3.0,6.0,85,0.00,,,0.08,0.000000,,2014-02-17 06:52:00,
2014-02-17 07:02:00,28.0,24.0,-100.00,SSE,153,3.0,6.0,85,0.00,,,0.08,0.000000,,2014-02-17 07:02:00,
2014-02-17 07:11:00,27.0,23.0,-100.00,East,94,1.0,6.0,83,0.00,,,0.08,0.000000,,2014-02-17 07:11:00,
2014-02-17 07:42:00,27.0,23.0,-100.00,East,94,1.0,6.0,83,0.00,,,0.08,0.000000,,2014-02-17 07:42:00,
2014-02-17 07:52:00,27.0,23.0,-100.00,East,94,1.0,6.0,83,0.00,,,0.08,0.000000,,2014-02-17 07:52:00,
2014-02-17 08:02:00,27.0,23.0,-100.00,East,94,1.0,6.0,83,0.00,,,0.08,0.000000,,2014-02-17 08:02:00,
2014-02-17 08:11:00,26.0,22.0,-100.00,West,266,2.0,4.0,85,0.00,,,0.08,0.000000,,2014-02-17 08:11:00,
2014-02-17 08:42:00,26.0,22.0,-100.00,West,266,2.0,4.0,85,0.00,,,0.08,0.000000,,2014-02-17 08:42:00,
2014-02-17 08:53:00,26.0,22.0,-100.00,West,266,2.0,4.0,85,0.00,,,0.08,0.000000,,2014-02-17 08:53:00,
2014-02-17 09:02:00,26.0,22.0,-100.00,West,266,2.0,4.0,85,0.00,,,0.08,0.000000,,2014-02-17 09:02:00,
2014-02-17 09:11:00,25.0,21.0,-100.00,WSW,244,1.0,4.0,85,0.00,,,0.08,0.000000,,2014-02-17 09:11:00,
2014-02-17 09:43:00,25.0,21.0,-100.00,WSW,244,1.0,4.0,85,0.00,,,0.08,0.000000,,2014-02-17 09:43:00,
2014-02-17 09:54:00,25.0,21.0,-100.00,WSW,244,1.0,4.0,85,0.00,,,0.08,0.000000,,2014-02-17 09:54:00,
2014-02-17 10:03:00,25.0,21.0,-100.00,WSW,244,1.0,4.0,85,0.00,,,0.08,0.000000,,2014-02-17 10:03:00,
2014-02-17 10:11:00,23.0,21.0,-100.00,WSW,253,3.0,4.0,90,0.00,,,0.08,0.000000,,2014-02-17 10:11:00,
2014-02-17 10:43:00,23.0,21.0,-100.00,WSW,253,3.0,4.0,90,0.00,,,0.08,0.000000,,2014-02-17 10:43:00,
2014-02-17 10:53:00,23.0,21.0,-100.00,WSW,253,3.0,4.0,90,0.00,,,0.08,0.000000,,2014-02-17 10:53:00,
2014-02-17 11:02:00,23.0,21.0,-100.00,WSW,253,3.0,4.0,90,0.00,,,0.08,0.000000,,2014-02-17 11:02:00,
2014-02-17 11:11:00,22.0,20.0,-100.00,North,-999,0.0,3.0,92,0.00,,,0.08,0.000000,,2014-02-17 11:11:00,
2014-02-17 11:43:00,22.0,20.0,-100.00,North,-999,0.0,3.0,92,0.00,,,0.08,0.000000,,2014-02-17 11:43:00,
2014-02-17 11:52:00,22.0,20.0,-100.00,North,-999,0.0,3.0,92,0.00,,,0.08,0.000000,,2014-02-17 11:52:00,
2014-02-17 12:02:00,22.0,20.0,-100.00,North,-999,0.0,3.0,92,0.00,,,0.08,0.000000,,2014-02-17 12:02:00,
2014-02-17 12:11:00,22.0,20.0,-100.00,WNW,291,1.0,4.0,92,0.00,,,0.08,0.000000,,2014-02-17 12:11:00,
2014-02-17 12:43:00,22.0,20.0,-100.00,WNW,291,1.0,4.0,92,0.00,,,0.08,0.000000,,2014-02-17 12:43:00,
2014-02-17 12:52:00,22.0,20.0,-100.00,WNW,291,1.0,4.0,92,0.00,,,0.08,0.000000,,2014-02-17 12:52:00,
2014-02-17 13:02:00,22.0,20.0,-100.00,WNW,291,1.0,4.0,92,0.00,,,0.08,0.000000,,2014-02-17 13:02:00,
2014-02-17 13:11:00,24.0,22.0,-100.00,East,97,1.0,2.0,92,0.00,,,0.08,23.000000,,2014-02-17 13:11:00,
2014-02-17 13:42:00,24.0,22.0,-100.00,East,97,1.0,2.0,92,0.00,,,0.08,23.000000,,2014-02-17 13:42:00,
2014-02-17 13:52:00,24.0,22.0,-100.00,East,97,1.0,2.0,92,0.00,,,0.08,23.000000,,2014-02-17 13:52:00,
2014-02-17 14:02:00,24.0,22.0,-100.00,East,97,1.0,2.0,92,0.00,,,0.08,23.000000,,2014-02-17 14:02:00,
2014-02-17 14:11:00,33.0,28.0,-100.00,WNW,298,2.0,4.0,80,0.00,,,0.08,214.000000,,2014-02-17 14:11:00,
2014-02-17 14:53:00,33.0,28.0,-100.00,WNW,298,2.0,4.0,80,0.00,,,0.08,214.000000,,2014-02-17 14:53:00,
2014-02-17 15:02:00,33.0,28.0,-100.00,WNW,298,2.0,4.0,80,0.00,,,0.08,214.000000,,2014-02-17 15:02:00,
2014-02-17 15:11:00,35.0,26.0,-100.00,NE,37,1.0,3.0,70,0.00,,,0.07,183.000000,,2014-02-17 15:11:00,
2014-02-17 15:43:00,35.0,26.0,-100.00,NE,37,1.0,3.0,70,0.00,,,0.07,183.000000,,2014-02-17 15:43:00,
2014-02-17 15:52:00,35.0,26.0,-100.00,NE,37,1.0,3.0,70,0.00,,,0.07,183.000000,,2014-02-17 15:52:00,
2014-02-17 16:03:00,35.0,26.0,-100.00,NE,37,1.0,3.0,70,0.00,,,0.07,183.000000,,2014-02-17 16:03:00,
2014-02-17 16:11:00,42.0,30.0,-100.00,WNW,294,3.0,4.0,61,0.00,,,0.06,334.000000,,2014-02-17 16:11:00,
2014-02-17 16:53:00,42.0,30.0,-100.00,WNW,294,3.0,4.0,61,0.00,,,0.06,334.000000,,2014-02-17 16:53:00,
2014-02-17 17:02:00,42.0,30.0,-100.00,WNW,294,3.0,4.0,61,0.00,,,0.06,334.000000,,2014-02-17 17:02:00,
2014-02-17 17:11:00,46.0,28.0,-100.00,WNW,297,5.0,10.0,50,0.00,,,0.02,468.000000,,2014-02-17 17:11:00,
2014-02-17 17:52:00,46.0,28.0,-100.00,WNW,297,5.0,10.0,50,0.00,,,0.02,468.000000,,2014-02-17 17:52:00,
2014-02-17 18:02:00,46.0,28.0,-100.00,WNW,297,5.0,10.0,50,0.00,,,0.02,468.000000,,2014-02-17 18:02:00,
2014-02-17 18:11:00,49.0,26.0,-100.00,WNW,286,5.0,13.0,40,0.00,,,0.00,467.000000,,2014-02-17 18:11:00,
2014-02-17 18:43:00,49.0,26.0,-100.00,WNW,286,5.0,13.0,40,0.00,,,0.00,467.000000,,2014-02-17 18:43:00,
2014-02-17 18:52:00,49.0,26.0,-100.00,WNW,286,5.0,13.0,40,0.00,,,0.00,467.000000,,2014-02-17 18:52:00,
2014-02-17 19:02:00,49.0,26.0,-100.00,WNW,286,5.0,13.0,40,0.00,,,0.00,467.000000,,2014-02-17 19:02:00,
2014-02-17 19:11:00,53.0,24.0,-100.00,NW,320,4.0,12.0,32,0.00,,,0.00,477.000000,,2014-02-17 19:11:00,
2014-02-17 19:53:00,53.0,24.0,-100.00,NW,320,4.0,12.0,32,0.00,,,0.00,477.000000,,2014-02-17 19:53:00,
2014-02-17 20:02:00,53.0,24.0,-100.00,NW,320,4.0,12.0,32,0.00,,,0.00,477.000000,,2014-02-17 20:02:00,
2014-02-17 20:11:00,52.0,22.0,-100.00,WNW,303,7.0,16.0,30,0.00,,,0.00,677.000000,,2014-02-17 20:11:00,
2014-02-17 20:42:00,52.0,22.0,-100.00,WNW,303,7.0,16.0,30,0.00,,,0.00,677.000000,,2014-02-17 20:42:00,
2014-02-17 20:53:00,52.0,22.0,-100.00,WNW,303,7.0,16.0,30,0.00,,,0.00,677.000000,,2014-02-17 20:53:00,
2014-02-17 21:02:00,52.0,22.0,-100.00,WNW,303,7.0,16.0,30,0.00,,,0.00,677.000000,,2014-02-17 21:02:00,
2014-02-17 21:11:00,50.0,21.0,-100.00,NW,306,7.0,15.0,32,0.00,,,0.00,475.000000,,2014-02-17 21:11:00,
2014-02-17 21:43:00,50.0,21.0,-100.00,NW,306,7.0,15.0,32,0.00,,,0.00,475.000000,,2014-02-17 21:43:00,
2014-02-17 21:53:00,50.0,21.0,-100.00,NW,306,7.0,15.0,32,0.00,,,0.00,475.000000,,2014-02-17 21:53:00,
2014-02-17 22:03:00,50.0,21.0,-100.00,NW,306,7.0,15.0,32,0.00,,,0.00,475.000000,,2014-02-17 22:03:00,
2014-02-17 22:11:00,48.0,23.0,-100.00,WNW,302,6.0,15.0,37,0.00,,,0.00,110.000000,,2014-02-17 22:11:00,
2014-02-17 22:43:00,48.0,23.0,-100.00,WNW,302,6.0,15.0,37,0.00,,,0.00,110.000000,,2014-02-17 22:43:00,
2014-02-17 22:52:00,48.0,23.0,-100.00,WNW,302,6.0,15.0,37,0.00,,,0.00,110.000000,,2014-02-17 22:52:00,
2014-02-17 23:02:00,48.0,23.0,-100.00,WNW,302,6.0,15.0,37,0.00,,,0.00,110.000000,,2014-02-17 23:02:00,
2014-02-17 23:11:00,47.0,25.0,-100.00,NW,316,6.0,20.0,41,0.00,,,0.00,24.000000,,2014-02-17 23:11:00,
2014-02-17 23:42:00,47.0,25.0,-100.00,NW,316,6.0,20.0,41,0.00,,,0.00,24.000000,,2014-02-17 23:42:00,
2014-02-17 23:53:00,47.0,25.0,-100.00,NW,316,6.0,20.0,41,0.00,,,0.00,24.000000,,2014-02-17 23:53:00,